sensor_id;sensor_type;location;lat;lon;timestamp;pressure;altitude;pressure_sealevel;temperature;humidity
7480;BME280;3781;42.272;22.658;2023-01-23T00:01:12;94876.31;;;4.13;100.00
7480;BME280;3781;42.272;22.658;2023-01-23T00:03:39;94874.53;;;4.29;100.00
7480;BME280;3781;42.272;22.658;2023-01-23T00:06:08;94892.41;;;4.31;100.00
7480;BME280;3781;42.272;22.658;2023-01-23T00:08:37;94891.16;;;3.94;100.00
7480;BME280;3781;42.272;22.658;2023-01-23T00:11:07;94883.06;;;3.56;100.00
7480;BME280;3781;42.272;22.658;2023-01-23T00:13:34;94913.66;;;3.75;100.00
7480;BME280;3781;42.272;22.658;2023-01-23T00:16:03;94918.44;;;3.81;100.00
7480;BME280;3781;42.272;22.658;2023-01-23T00:18:30;94890.22;;;3.65;100.00
7480;BME280;3781;42.272;22.658;2023-01-23T00:20:56;94924.91;;;3.88;100.00
7480;BME280;3781;42.272;22.658;2023-01-23T00:23:23;94923.44;;;3.84;100.00
7480;BME280;3781;42.272;22.658;2023-01-23T00:25:50;94927.63;;;3.85;100.00
7480;BME280;3781;42.272;22.658;2023-01-23T00:28:18;94922.19;;;3.91;100.00
7480;BME280;3781;42.272;22.658;2023-01-23T00:30:45;94917.41;;;3.99;100.00
7480;BME280;3781;42.272;22.658;2023-01-23T00:33:12;94913.75;;;4.03;100.00
7480;BME280;3781;42.272;22.658;2023-01-23T00:35:38;94902.16;;;3.96;100.00
7480;BME280;3781;42.272;22.658;2023-01-23T00:38:05;94896.44;;;3.77;100.00
7480;BME280;3781;42.272;22.658;2023-01-23T00:40:33;94914.97;;;3.82;100.00
7480;BME280;3781;42.272;22.658;2023-01-23T00:42:59;94896.44;;;3.77;100.00
7480;BME280;3781;42.272;22.658;2023-01-23T00:45:27;94920.28;;;3.79;100.00
7480;BME280;3781;42.272;22.658;2023-01-23T00:47:54;94917.66;;;3.80;100.00
7480;BME280;3781;42.272;22.658;2023-01-23T00:50:21;94929.06;;;3.91;100.00
7480;BME280;3781;42.272;22.658;2023-01-23T00:52:48;94919.59;;;3.91;100.00
7480;BME280;3781;42.272;22.658;2023-01-23T00:55:14;94924.13;;;4.02;100.00
7480;BME280;3781;42.272;22.658;2023-01-23T00:57:41;94924.69;;;4.07;100.00
7480;BME280;3781;42.272;22.658;2023-01-23T01:00:09;94915.44;;;4.04;100.00
7480;BME280;3781;42.272;22.658;2023-01-23T01:02:37;94909.81;;;3.98;100.00
7480;BME280;3781;42.272;22.658;2023-01-23T01:05:06;94914.78;;;3.85;100.00
7480;BME280;3781;42.272;22.658;2023-01-23T01:07:33;94913.16;;;3.84;100.00
7480;BME280;3781;42.272;22.658;2023-01-23T01:09:59;94901.22;;;3.83;100.00
7480;BME280;3781;42.272;22.658;2023-01-23T01:12:26;94893.09;;;3.91;100.00
7480;BME280;3781;42.272;22.658;2023-01-23T01:14:53;94905.66;;;3.95;100.00
7480;BME280;3781;42.272;22.658;2023-01-23T01:17:19;94887.63;;;3.81;100.00
7480;BME280;3781;42.272;22.658;2023-01-23T01:19:48;94893.56;;;3.97;100.00
7480;BME280;3781;42.272;22.658;2023-01-23T01:22:14;94882.31;;;3.84;100.00
7480;BME280;3781;42.272;22.658;2023-01-23T01:24:41;94862.28;;;3.75;100.00
7480;BME280;3781;42.272;22.658;2023-01-23T01:27:08;94897.75;;;3.98;100.00
7480;BME280;3781;42.272;22.658;2023-01-23T01:29:34;94892.81;;;3.95;100.00
7480;BME280;3781;42.272;22.658;2023-01-23T01:32:01;94892.22;;;3.76;100.00
7480;BME280;3781;42.272;22.658;2023-01-23T01:34:28;94891.50;;;3.58;100.00
7480;BME280;3781;42.272;22.658;2023-01-23T01:36:56;94897.28;;;3.62;100.00
7480;BME280;3781;42.272;22.658;2023-01-23T01:39:23;94891.03;;;3.52;100.00
7480;BME280;3781;42.272;22.658;2023-01-23T01:41:50;94880.06;;;3.48;100.00
7480;BME280;3781;42.272;22.658;2023-01-23T01:44:18;94886.44;;;3.57;100.00
7480;BME280;3781;42.272;22.658;2023-01-23T01:46:45;94891.03;;;3.52;100.00
7480;BME280;3781;42.272;22.658;2023-01-23T01:49:15;94889.75;;;3.59;100.00
7480;BME280;3781;42.272;22.658;2023-01-23T01:51:46;94886.38;;;3.58;100.00
7480;BME280;3781;42.272;22.658;2023-01-23T01:54:22;94865.00;;;3.58;100.00
7480;BME280;3781;42.272;22.658;2023-01-23T01:56:54;94879.03;;;3.82;100.00
7480;BME280;3781;42.272;22.658;2023-01-23T01:59:27;94887.31;;;3.87;100.00
7480;BME280;3781;42.272;22.658;2023-01-23T02:01:59;94886.53;;;3.85;100.00
7480;BME280;3781;42.272;22.658;2023-01-23T02:04:30;94893.63;;;3.66;100.00
7480;BME280;3781;42.272;22.658;2023-01-23T02:06:58;94895.66;;;3.45;100.00
7480;BME280;3781;42.272;22.658;2023-01-23T02:09:27;94894.50;;;3.51;100.00
7480;BME280;3781;42.272;22.658;2023-01-23T02:11:53;94908.56;;;3.44;100.00
7480;BME280;3781;42.272;22.658;2023-01-23T02:14:20;94899.59;;;3.66;100.00
7480;BME280;3781;42.272;22.658;2023-01-23T02:16:50;94881.22;;;3.74;100.00
7480;BME280;3781;42.272;22.658;2023-01-23T02:19:32;94905.81;;;3.78;100.00
7480;BME280;3781;42.272;22.658;2023-01-23T02:22:12;94899.72;;;3.79;100.00
7480;BME280;3781;42.272;22.658;2023-01-23T02:24:48;94905.84;;;3.92;100.00
7480;BME280;3781;42.272;22.658;2023-01-23T02:27:20;94904.00;;;3.94;100.00
7480;BME280;3781;42.272;22.658;2023-01-23T02:29:47;94904.84;;;3.95;100.00
7480;BME280;3781;42.272;22.658;2023-01-23T02:32:16;94898.34;;;4.03;100.00
7480;BME280;3781;42.272;22.658;2023-01-23T02:34:44;94906.34;;;3.83;100.00
7480;BME280;3781;42.272;22.658;2023-01-23T02:37:11;94914.97;;;3.82;100.00
7480;BME280;3781;42.272;22.658;2023-01-23T02:39:38;94908.88;;;3.69;100.00
7480;BME280;3781;42.272;22.658;2023-01-23T02:42:05;94924.31;;;3.83;100.00
7480;BME280;3781;42.272;22.658;2023-01-23T02:44:33;94903.72;;;3.85;100.00
7480;BME280;3781;42.272;22.658;2023-01-23T02:47:03;94898.13;;;3.92;100.00
7480;BME280;3781;42.272;22.658;2023-01-23T02:49:32;94896.56;;;3.90;100.00
7480;BME280;3781;42.272;22.658;2023-01-23T02:51:59;94900.66;;;3.78;100.00
7480;BME280;3781;42.272;22.658;2023-01-23T02:54:26;94906.41;;;3.67;100.00
7480;BME280;3781;42.272;22.658;2023-01-23T02:56:53;94794.72;;;2.99;100.00
7480;BME280;3781;42.272;22.658;2023-01-23T02:59:21;94905.31;;;3.71;100.00
7480;BME280;3781;42.272;22.658;2023-01-23T03:02:07;94894.78;;;3.76;100.00
7480;BME280;3781;42.272;22.658;2023-01-23T03:04:34;94906.19;;;3.86;100.00
7480;BME280;3781;42.272;22.658;2023-01-23T03:07:01;94908.88;;;3.69;100.00
7480;BME280;3781;42.272;22.658;2023-01-23T03:09:27;94909.38;;;3.60;100.00
7480;BME280;3781;42.272;22.658;2023-01-23T03:11:54;94912.31;;;3.54;100.00
7480;BME280;3781;42.272;22.658;2023-01-23T03:14:22;94909.75;;;3.54;100.00
7480;BME280;3781;42.272;22.658;2023-01-23T03:16:49;94884.56;;;3.45;100.00
7480;BME280;3781;42.272;22.658;2023-01-23T03:19:21;94883.72;;;3.60;100.00
7480;BME280;3781;42.272;22.658;2023-01-23T03:21:49;94893.56;;;3.67;100.00
7480;BME280;3781;42.272;22.658;2023-01-23T03:24:16;94898.59;;;3.69;100.00
7480;BME280;3781;42.272;22.658;2023-01-23T03:26:45;94851.41;;;3.56;100.00
7480;BME280;3781;42.272;22.658;2023-01-23T03:29:14;94884.59;;;4.04;100.00
7480;BME280;3781;42.272;22.658;2023-01-23T03:31:58;94887.84;;;4.22;100.00
7480;BME280;3781;42.272;22.658;2023-01-23T03:34:27;94856.06;;;4.09;100.00
7480;BME280;3781;42.272;22.658;2023-01-23T03:36:54;94884.44;;;4.35;100.00
7480;BME280;3781;42.272;22.658;2023-01-23T03:39:20;94847.50;;;4.22;100.00
7480;BME280;3781;42.272;22.658;2023-01-23T03:42:07;94885.81;;;4.55;100.00
7480;BME280;3781;42.272;22.658;2023-01-23T03:44:34;94884.63;;;4.46;100.00
7480;BME280;3781;42.272;22.658;2023-01-23T03:47:02;94885.56;;;4.45;100.00
7480;BME280;3781;42.272;22.658;2023-01-23T03:49:30;94881.97;;;4.62;100.00
7480;BME280;3781;42.272;22.658;2023-01-23T03:51:58;94876.81;;;4.34;100.00
7480;BME280;3781;42.272;22.658;2023-01-23T03:54:24;94901.91;;;4.44;100.00
7480;BME280;3781;42.272;22.658;2023-01-23T03:56:52;94903.38;;;4.34;100.00
7480;BME280;3781;42.272;22.658;2023-01-23T03:59:18;94917.59;;;4.40;100.00
7480;BME280;3781;42.272;22.658;2023-01-23T04:01:45;94918.00;;;4.48;100.00
7480;BME280;3781;42.272;22.658;2023-01-23T04:04:12;94901.69;;;4.33;100.00
7480;BME280;3781;42.272;22.658;2023-01-23T04:06:41;94916.41;;;4.59;100.00
7480;BME280;3781;42.272;22.658;2023-01-23T04:09:07;94923.69;;;4.67;100.00
7480;BME280;3781;42.272;22.658;2023-01-23T04:11:34;94923.41;;;4.72;100.00
7480;BME280;3781;42.272;22.658;2023-01-23T04:14:01;94913.13;;;4.72;100.00
7480;BME280;3781;42.272;22.658;2023-01-23T04:16:27;94915.31;;;4.64;100.00
7480;BME280;3781;42.272;22.658;2023-01-23T04:18:54;94910.16;;;4.92;100.00
7480;BME280;3781;42.272;22.658;2023-01-23T04:21:21;94919.00;;;4.88;100.00
7480;BME280;3781;42.272;22.658;2023-01-23T04:23:49;94923.03;;;5.06;100.00
7480;BME280;3781;42.272;22.658;2023-01-23T04:26:16;94928.00;;;5.09;100.00
7480;BME280;3781;42.272;22.658;2023-01-23T04:28:44;94925.31;;;5.10;100.00
7480;BME280;3781;42.272;22.658;2023-01-23T04:31:11;94936.34;;;4.98;100.00
7480;BME280;3781;42.272;22.658;2023-01-23T04:33:37;94933.16;;;5.09;100.00
7480;BME280;3781;42.272;22.658;2023-01-23T04:36:05;94932.00;;;5.27;100.00
7480;BME280;3781;42.272;22.658;2023-01-23T04:38:33;94933.56;;;5.29;100.00
7480;BME280;3781;42.272;22.658;2023-01-23T04:41:02;94925.56;;;5.20;100.00
7480;BME280;3781;42.272;22.658;2023-01-23T04:43:29;94930.19;;;5.15;100.00
7480;BME280;3781;42.272;22.658;2023-01-23T04:45:56;94927.44;;;4.90;100.00
7480;BME280;3781;42.272;22.658;2023-01-23T04:48:23;94942.34;;;4.99;100.00
7480;BME280;3781;42.272;22.658;2023-01-23T04:50:50;94932.03;;;4.99;100.00
7480;BME280;3781;42.272;22.658;2023-01-23T04:53:17;94898.84;;;4.94;100.00
7480;BME280;3781;42.272;22.658;2023-01-23T04:55:46;94915.88;;;5.11;100.00
7480;BME280;3781;42.272;22.658;2023-01-23T04:58:14;94886.81;;;4.95;100.00
7480;BME280;3781;42.272;22.658;2023-01-23T05:00:41;94913.81;;;5.16;100.00
7480;BME280;3781;42.272;22.658;2023-01-23T05:03:07;94926.03;;;5.26;100.00
7480;BME280;3781;42.272;22.658;2023-01-23T05:05:34;94940.53;;;5.42;100.00
7480;BME280;3781;42.272;22.658;2023-01-23T05:08:01;94935.38;;;5.42;100.00
7480;BME280;3781;42.272;22.658;2023-01-23T05:10:27;94931.06;;;5.42;100.00
7480;BME280;3781;42.272;22.658;2023-01-23T05:12:54;94931.06;;;5.42;100.00
7480;BME280;3781;42.272;22.658;2023-01-23T05:15:22;94936.41;;;5.39;100.00
7480;BME280;3781;42.272;22.658;2023-01-23T05:17:49;94938.38;;;5.62;100.00
7480;BME280;3781;42.272;22.658;2023-01-23T05:20:16;94935.25;;;5.57;100.00
7480;BME280;3781;42.272;22.658;2023-01-23T05:22:43;94941.34;;;5.42;100.00
7480;BME280;3781;42.272;22.658;2023-01-23T05:25:18;94940.28;;;5.32;100.00
7480;BME280;3781;42.272;22.658;2023-01-23T05:27:45;94965.69;;;4.96;100.00
7480;BME280;3781;42.272;22.658;2023-01-23T05:30:12;94964.59;;;4.72;100.00
7480;BME280;3781;42.272;22.658;2023-01-23T05:32:40;94955.19;;;4.56;100.00
7480;BME280;3781;42.272;22.658;2023-01-23T05:35:08;94961.97;;;4.57;100.00
7480;BME280;3781;42.272;22.658;2023-01-23T05:37:35;94968.38;;;4.36;100.00
7480;BME280;3781;42.272;22.658;2023-01-23T05:40:02;94967.22;;;4.26;100.00
7480;BME280;3781;42.272;22.658;2023-01-23T05:42:30;94967.78;;;4.17;100.00
7480;BME280;3781;42.272;22.658;2023-01-23T05:44:56;94956.53;;;4.04;100.00
7480;BME280;3781;42.272;22.658;2023-01-23T05:47:23;94962.47;;;4.05;100.00
7480;BME280;3781;42.272;22.658;2023-01-23T05:49:51;94960.59;;;4.08;100.00
7480;BME280;3781;42.272;22.658;2023-01-23T05:52:18;94958.31;;;4.18;100.00
7480;BME280;3781;42.272;22.658;2023-01-23T05:54:46;94956.94;;;4.26;100.00
7480;BME280;3781;42.272;22.658;2023-01-23T05:57:12;94966.91;;;4.32;100.00
7480;BME280;3781;42.272;22.658;2023-01-23T05:59:39;94965.34;;;4.44;100.00
7480;BME280;3781;42.272;22.658;2023-01-23T06:02:06;94971.69;;;4.52;100.00
7480;BME280;3781;42.272;22.658;2023-01-23T06:04:33;94975.22;;;4.66;100.00
7480;BME280;3781;42.272;22.658;2023-01-23T06:07:01;94981.28;;;4.79;100.00
7480;BME280;3781;42.272;22.658;2023-01-23T06:09:28;94985.63;;;4.78;100.00
7480;BME280;3781;42.272;22.658;2023-01-23T06:11:55;94997.94;;;5.01;100.00
7480;BME280;3781;42.272;22.658;2023-01-23T06:14:21;94999.53;;;5.04;100.00
7480;BME280;3781;42.272;22.658;2023-01-23T06:16:48;95001.16;;;4.91;100.00
7480;BME280;3781;42.272;22.658;2023-01-23T06:19:15;95000.81;;;4.83;100.00
7480;BME280;3781;42.272;22.658;2023-01-23T06:21:41;95007.22;;;4.90;100.00
7480;BME280;3781;42.272;22.658;2023-01-23T06:24:09;94992.88;;;4.86;100.00
7480;BME280;3781;42.272;22.658;2023-01-23T06:26:36;94992.88;;;4.86;100.00
7480;BME280;3781;42.272;22.658;2023-01-23T06:29:03;94994.56;;;4.87;100.00
7480;BME280;3781;42.272;22.658;2023-01-23T06:31:29;94994.88;;;4.81;100.00
7480;BME280;3781;42.272;22.658;2023-01-23T06:33:58;94988.03;;;4.95;100.00
7480;BME280;3781;42.272;22.658;2023-01-23T06:36:25;95005.38;;;5.20;100.00
7480;BME280;3781;42.272;22.658;2023-01-23T06:38:52;94977.19;;;5.04;100.00
7480;BME280;3781;42.272;22.658;2023-01-23T06:41:20;95007.78;;;5.23;100.00
7480;BME280;3781;42.272;22.658;2023-01-23T06:43:48;95013.41;;;5.29;100.00
7480;BME280;3781;42.272;22.658;2023-01-23T06:46:15;95007.41;;;5.29;100.00
7480;BME280;3781;42.272;22.658;2023-01-23T06:48:42;95007.41;;;5.29;100.00
7480;BME280;3781;42.272;22.658;2023-01-23T06:51:08;95004.66;;;5.32;100.00
7480;BME280;3781;42.272;22.658;2023-01-23T06:53:35;95013.84;;;5.36;100.00
7480;BME280;3781;42.272;22.658;2023-01-23T06:56:04;94986.28;;;5.24;100.00
7480;BME280;3781;42.272;22.658;2023-01-23T06:58:33;95007.59;;;5.40;100.00
7480;BME280;3781;42.272;22.658;2023-01-23T07:01:07;95004.28;;;5.52;100.00
7480;BME280;3781;42.272;22.658;2023-01-23T07:03:34;95013.47;;;5.56;100.00
7480;BME280;3781;42.272;22.658;2023-01-23T07:06:01;95016.28;;;5.66;100.00
7480;BME280;3781;42.272;22.658;2023-01-23T07:08:31;95029.91;;;5.68;100.00
7480;BME280;3781;42.272;22.658;2023-01-23T07:10:57;95016.94;;;5.69;100.00
7480;BME280;3781;42.272;22.658;2023-01-23T07:13:24;95010.50;;;5.62;100.00
7480;BME280;3781;42.272;22.658;2023-01-23T07:15:53;95013.34;;;5.72;100.00
7480;BME280;3781;42.272;22.658;2023-01-23T07:18:20;94996.28;;;5.57;100.00
7480;BME280;3781;42.272;22.658;2023-01-23T07:20:46;95026.13;;;5.87;100.00
7480;BME280;3781;42.272;22.658;2023-01-23T07:23:14;95013.97;;;5.89;100.00
7480;BME280;3781;42.272;22.658;2023-01-23T07:25:41;95041.56;;;6.01;100.00
7480;BME280;3781;42.272;22.658;2023-01-23T07:28:08;95040.84;;;5.99;100.00
7480;BME280;3781;42.272;22.658;2023-01-23T07:30:35;95040.63;;;6.02;100.00
7480;BME280;3781;42.272;22.658;2023-01-23T07:33:04;95053.81;;;5.98;100.00
7480;BME280;3781;42.272;22.658;2023-01-23T07:35:31;95040.19;;;5.96;100.00
7480;BME280;3781;42.272;22.658;2023-01-23T07:37:57;95044.50;;;5.81;100.00
7480;BME280;3781;42.272;22.658;2023-01-23T07:40:24;95050.78;;;5.77;100.00
7480;BME280;3781;42.272;22.658;2023-01-23T07:42:51;95056.84;;;5.76;100.00
7480;BME280;3781;42.272;22.658;2023-01-23T07:45:18;95025.50;;;5.56;100.00
7480;BME280;3781;42.272;22.658;2023-01-23T07:47:45;95038.81;;;5.76;100.00
7480;BME280;3781;42.272;22.658;2023-01-23T07:50:13;95034.03;;;5.70;100.00
7480;BME280;3781;42.272;22.658;2023-01-23T07:52:39;95047.88;;;5.69;100.00
7480;BME280;3781;42.272;22.658;2023-01-23T07:55:07;95061.28;;;5.74;100.00
7480;BME280;3781;42.272;22.658;2023-01-23T07:57:34;95051.91;;;5.73;100.00
7480;BME280;3781;42.272;22.658;2023-01-23T08:00:01;95070.50;;;5.78;100.00
7480;BME280;3781;42.272;22.658;2023-01-23T08:02:28;95038.28;;;5.57;100.00
7480;BME280;3781;42.272;22.658;2023-01-23T08:04:55;95045.75;;;5.62;100.00
7480;BME280;3781;42.272;22.658;2023-01-23T08:07:23;95078.84;;;5.82;100.00
7480;BME280;3781;42.272;22.658;2023-01-23T08:09:49;95070.13;;;5.70;100.00
7480;BME280;3781;42.272;22.658;2023-01-23T08:12:16;95076.03;;;5.86;100.00
7480;BME280;3781;42.272;22.658;2023-01-23T08:14:43;95065.97;;;5.68;100.00
7480;BME280;3781;42.272;22.658;2023-01-23T08:17:10;95074.75;;;5.51;100.00
7480;BME280;3781;42.272;22.658;2023-01-23T08:19:36;95064.59;;;5.20;100.00
7480;BME280;3781;42.272;22.658;2023-01-23T08:22:03;95084.47;;;5.18;100.00
7480;BME280;3781;42.272;22.658;2023-01-23T08:24:31;95079.31;;;5.04;100.00
7480;BME280;3781;42.272;22.658;2023-01-23T08:26:58;95068.09;;;5.05;100.00
7480;BME280;3781;42.272;22.658;2023-01-23T08:29:25;95075.44;;;4.97;100.00
7480;BME280;3781;42.272;22.658;2023-01-23T08:31:52;95070.44;;;4.94;100.00
7480;BME280;3781;42.272;22.658;2023-01-23T08:34:19;95070.75;;;4.89;100.00
7480;BME280;3781;42.272;22.658;2023-01-23T08:36:48;95067.34;;;5.03;100.00
7480;BME280;3781;42.272;22.658;2023-01-23T08:39:15;95053.38;;;5.07;100.00
7480;BME280;3781;42.272;22.658;2023-01-23T08:41:44;95072.34;;;5.34;100.00
7480;BME280;3781;42.272;22.658;2023-01-23T08:44:11;95074.00;;;5.35;100.00
7480;BME280;3781;42.272;22.658;2023-01-23T08:46:38;95081.91;;;5.32;100.00
7480;BME280;3781;42.272;22.658;2023-01-23T08:49:05;95068.84;;;5.35;100.00
7480;BME280;3781;42.272;22.658;2023-01-23T08:51:32;95093.41;;;5.41;100.00
7480;BME280;3781;42.272;22.658;2023-01-23T08:53:59;95087.44;;;5.40;100.00
7480;BME280;3781;42.272;22.658;2023-01-23T08:56:26;95102.88;;;5.40;100.00
7480;BME280;3781;42.272;22.658;2023-01-23T08:58:54;95095.25;;;5.39;100.00
7480;BME280;3781;42.272;22.658;2023-01-23T09:01:22;95102.50;;;5.46;100.00
7480;BME280;3781;42.272;22.658;2023-01-23T09:03:49;95091.47;;;5.44;100.00
7480;BME280;3781;42.272;22.658;2023-01-23T09:06:19;95099.78;;;5.63;100.00
7480;BME280;3781;42.272;22.658;2023-01-23T09:08:46;95104.81;;;5.79;100.00
7480;BME280;3781;42.272;22.658;2023-01-23T09:11:14;95102.16;;;5.80;100.00
7480;BME280;3781;42.272;22.658;2023-01-23T09:13:41;95096.25;;;5.78;100.00
7480;BME280;3781;42.272;22.658;2023-01-23T09:16:09;95099.38;;;5.83;100.00
7480;BME280;3781;42.272;22.658;2023-01-23T09:18:36;95077.94;;;5.69;100.00
7480;BME280;3781;42.272;22.658;2023-01-23T09:21:07;95098.09;;;5.62;100.00
7480;BME280;3781;42.272;22.658;2023-01-23T09:23:34;95099.56;;;5.66;100.00
7480;BME280;3781;42.272;22.658;2023-01-23T09:26:02;95097.00;;;5.80;100.00
7480;BME280;3781;42.272;22.658;2023-01-23T09:28:29;95086.22;;;5.74;100.00
7480;BME280;3781;42.272;22.658;2023-01-23T09:30:56;95090.66;;;5.86;100.00
7480;BME280;3781;42.272;22.658;2023-01-23T09:33:24;95101.47;;;6.05;100.00
7480;BME280;3781;42.272;22.658;2023-01-23T09:35:51;95093.47;;;6.09;100.00
7480;BME280;3781;42.272;22.658;2023-01-23T09:38:18;95082.72;;;6.03;100.00
7480;BME280;3781;42.272;22.658;2023-01-23T09:40:49;95076.34;;;6.08;100.00
7480;BME280;3781;42.272;22.658;2023-01-23T09:43:22;95083.03;;;6.25;100.00
7480;BME280;3781;42.272;22.658;2023-01-23T09:45:57;95091.59;;;6.26;100.00
7480;BME280;3781;42.272;22.658;2023-01-23T09:48:30;95082.19;;;6.25;100.00
7480;BME280;3781;42.272;22.658;2023-01-23T09:51:02;95038.97;;;6.01;100.00
7480;BME280;3781;42.272;22.658;2023-01-23T09:53:35;95069.34;;;6.11;100.00
7480;BME280;3781;42.272;22.658;2023-01-23T09:56:07;95088.78;;;6.43;100.00
7480;BME280;3781;42.272;22.658;2023-01-23T09:58:43;95079.03;;;6.34;100.00
7480;BME280;3781;42.272;22.658;2023-01-23T10:01:12;95088.88;;;6.41;100.00
7480;BME280;3781;42.272;22.658;2023-01-23T10:03:40;95093.31;;;6.39;100.00
7480;BME280;3781;42.272;22.658;2023-01-23T10:06:17;95084.06;;;6.49;100.00
7480;BME280;3781;42.272;22.658;2023-01-23T10:08:57;95083.19;;;6.75;100.00
7480;BME280;3781;42.272;22.658;2023-01-23T10:11:37;95081.78;;;6.84;100.00
7480;BME280;3781;42.272;22.658;2023-01-23T10:14:20;95090.84;;;6.77;100.00
7480;BME280;3781;42.272;22.658;2023-01-23T10:16:59;95085.59;;;6.78;100.00
7480;BME280;3781;42.272;22.658;2023-01-23T10:19:49;95084.03;;;6.76;100.00
7480;BME280;3781;42.272;22.658;2023-01-23T10:22:32;95079.50;;;6.92;100.00
7480;BME280;3781;42.272;22.658;2023-01-23T10:25:06;95070.84;;;6.93;100.00
7480;BME280;3781;42.272;22.658;2023-01-23T10:27:36;95070.63;;;6.96;100.00
7480;BME280;3781;42.272;22.658;2023-01-23T10:30:18;95079.44;;;7.19;100.00
7480;BME280;3781;42.272;22.658;2023-01-23T10:32:50;95074.81;;;7.24;100.00
7480;BME280;3781;42.272;22.658;2023-01-23T10:35:23;95089.47;;;7.23;100.00
7480;BME280;3781;42.272;22.658;2023-01-23T10:37:59;95030.97;;;6.84;100.00
7480;BME280;3781;42.272;22.658;2023-01-23T10:40:26;95079.56;;;7.17;100.00
7480;BME280;3781;42.272;22.658;2023-01-23T10:43:12;95079.03;;;7.12;100.00
7480;BME280;3781;42.272;22.658;2023-01-23T10:45:40;95082.84;;;7.19;100.00
7480;BME280;3781;42.272;22.658;2023-01-23T10:48:38;95078.59;;;7.18;100.00
7480;BME280;3781;42.272;22.658;2023-01-23T10:51:32;95067.56;;;7.16;100.00
7480;BME280;3781;42.272;22.658;2023-01-23T10:54:04;95057.53;;;6.99;100.00
7480;BME280;3781;42.272;22.658;2023-01-23T10:56:31;95081.91;;;7.08;100.00
7480;BME280;3781;42.272;22.658;2023-01-23T10:59:00;95072.94;;;7.13;100.00
7480;BME280;3781;42.272;22.658;2023-01-23T11:01:30;95076.84;;;7.19;100.00
7480;BME280;3781;42.272;22.658;2023-01-23T11:04:08;95063.34;;;7.15;100.00
7480;BME280;3781;42.272;22.658;2023-01-23T11:06:36;95068.59;;;7.26;100.00
7480;BME280;3781;42.272;22.658;2023-01-23T11:09:07;95075.22;;;7.30;100.00
7480;BME280;3781;42.272;22.658;2023-01-23T11:11:43;95056.81;;;7.22;100.00
7480;BME280;3781;42.272;22.658;2023-01-23T11:14:12;95071.50;;;7.34;100.00
7480;BME280;3781;42.272;22.658;2023-01-23T11:16:41;95078.53;;;7.20;100.00
7480;BME280;3781;42.272;22.658;2023-01-23T11:19:15;95055.78;;;7.12;100.00
7480;BME280;3781;42.272;22.658;2023-01-23T11:21:54;95063.44;;;7.26;100.00
7480;BME280;3781;42.272;22.658;2023-01-23T11:24:28;95053.09;;;7.26;100.00
7480;BME280;3781;42.272;22.658;2023-01-23T11:27:00;95062.19;;;7.32;100.00
7480;BME280;3781;42.272;22.658;2023-01-23T11:29:28;95062.81;;;7.23;100.00
7480;BME280;3781;42.272;22.658;2023-01-23T11:31:58;95039.44;;;7.12;100.00
7480;BME280;3781;42.272;22.658;2023-01-23T11:34:30;95074.19;;;7.33;100.00
7480;BME280;3781;42.272;22.658;2023-01-23T11:37:06;95063.44;;;7.39;100.00
7480;BME280;3781;42.272;22.658;2023-01-23T11:39:41;95077.28;;;7.38;100.00
7480;BME280;3781;42.272;22.658;2023-01-23T11:42:12;95075.81;;;7.34;100.00
7480;BME280;3781;42.272;22.658;2023-01-23T11:44:39;95068.19;;;7.32;100.00
7480;BME280;3781;42.272;22.658;2023-01-23T11:47:45;95084.72;;;7.42;100.00
7480;BME280;3781;42.272;22.658;2023-01-23T11:50:29;95078.09;;;7.38;100.00
7480;BME280;3781;42.272;22.658;2023-01-23T11:53:06;95059.09;;;7.39;100.00
7480;BME280;3781;42.272;22.658;2023-01-23T11:55:45;95070.44;;;7.49;100.00
7480;BME280;3781;42.272;22.658;2023-01-23T11:58:25;95071.28;;;7.63;100.00
7480;BME280;3781;42.272;22.658;2023-01-23T12:01:04;95052.06;;;7.41;100.00
7480;BME280;3781;42.272;22.658;2023-01-23T12:04:11;95071.78;;;7.68;100.00
7480;BME280;3781;42.272;22.658;2023-01-23T12:06:50;95057.63;;;7.60;100.00
7480;BME280;3781;42.272;22.658;2023-01-23T12:09:26;95045.13;;;7.54;100.00
7480;BME280;3781;42.272;22.658;2023-01-23T12:12:15;95059.25;;;7.61;100.00
7480;BME280;3781;42.272;22.658;2023-01-23T12:14:51;95038.38;;;7.65;100.00
7480;BME280;3781;42.272;22.658;2023-01-23T12:17:28;95053.34;;;7.85;100.00
7480;BME280;3781;42.272;22.658;2023-01-23T12:20:16;95037.84;;;7.72;100.00
7480;BME280;3781;42.272;22.658;2023-01-23T12:22:54;95021.88;;;7.54;100.00
7480;BME280;3781;42.272;22.658;2023-01-23T12:25:30;95061.75;;;7.76;100.00
7480;BME280;3781;42.272;22.658;2023-01-23T12:28:04;95060.78;;;7.77;100.00
7480;BME280;3781;42.272;22.658;2023-01-23T12:31:04;95041.50;;;7.70;100.00
7480;BME280;3781;42.272;22.658;2023-01-23T12:33:51;95046.44;;;7.73;100.00
7480;BME280;3781;42.272;22.658;2023-01-23T12:36:41;95057.00;;;7.70;100.00
7480;BME280;3781;42.272;22.658;2023-01-23T12:39:21;95053.47;;;7.71;100.00
7480;BME280;3781;42.272;22.658;2023-01-23T12:42:01;95065.06;;;7.65;100.00
7480;BME280;3781;42.272;22.658;2023-01-23T12:44:33;95066.69;;;7.66;100.00
7480;BME280;3781;42.272;22.658;2023-01-23T12:47:04;95071.34;;;7.74;100.00
7480;BME280;3781;42.272;22.658;2023-01-23T12:49:38;95044.19;;;7.55;100.00
7480;BME280;3781;42.272;22.658;2023-01-23T12:52:12;95060.09;;;7.62;100.00
7480;BME280;3781;42.272;22.658;2023-01-23T12:54:44;95074.78;;;7.61;100.00
7480;BME280;3781;42.272;22.658;2023-01-23T12:57:15;95064.66;;;7.58;100.00
7480;BME280;3781;42.272;22.658;2023-01-23T13:00:06;95069.00;;;7.58;100.00
7480;BME280;3781;42.272;22.658;2023-01-23T13:02:39;95067.97;;;7.60;100.00
7480;BME280;3781;42.272;22.658;2023-01-23T13:05:16;95066.84;;;7.39;100.00
7480;BME280;3781;42.272;22.658;2023-01-23T13:07:50;95066.19;;;7.48;100.00
7480;BME280;3781;42.272;22.658;2023-01-23T13:10:43;95075.91;;;7.57;100.00
7480;BME280;3781;42.272;22.658;2023-01-23T13:13:30;95067.97;;;7.48;100.00
7480;BME280;3781;42.272;22.658;2023-01-23T13:16:03;95058.88;;;7.42;100.00
7480;BME280;3781;42.272;22.658;2023-01-23T13:18:36;95082.66;;;7.47;100.00
7480;BME280;3781;42.272;22.658;2023-01-23T13:21:17;95028.69;;;7.18;100.00
7480;BME280;3781;42.272;22.658;2023-01-23T13:24:39;95061.16;;;7.47;100.00
7480;BME280;3781;42.272;22.658;2023-01-23T13:27:46;95084.06;;;7.77;100.00